Progreso, Texas
Current Conditions -  °F | °C
As of 2:40 PM on Thursday 23 Oct 2014 (Local Time) from MMRX Reporting Station
Scattered Clouds Scattered Clouds  
Wind Chill: 81°   Ceiling: Unl
Heat Index: 81°   Visibility: 8mi
Dew Point: 59°   Wind: 0mph
Humidity: 48%   Direction: NA
Pressure: 30.04"   Gusts: NA
Location:  26.09°N, 97.96°W
Report Text: MMRX 231940Z 00000KT 8SM SCT025 SCT140 27/15 A3004 RMK 8/130 HZY FU
Loading
Personal Weather Stations






























Interactive Weather Map
Tropical Storm Tracking
New forecast layout! Learn more

10-Day Weather Forecast

Advertisements
Track Severe Weather on mobile